sensor_id;sensor_type;location;lat;lon;timestamp;pressure;altitude;pressure_sealevel;temperature
13570;BMP180;6856;51.460;7.158;2023-05-10T00:00:27;99632.00;;;18.50
13570;BMP180;6856;51.460;7.158;2023-05-10T00:03:02;99644.00;;;18.50
13570;BMP180;6856;51.460;7.158;2023-05-10T00:05:37;99633.00;;;18.50
13570;BMP180;6856;51.460;7.158;2023-05-10T00:08:12;99633.00;;;18.50
13570;BMP180;6856;51.460;7.158;2023-05-10T00:10:45;99636.00;;;18.50
13570;BMP180;6856;51.460;7.158;2023-05-10T00:13:19;99639.00;;;18.50
13570;BMP180;6856;51.460;7.158;2023-05-10T00:15:53;99635.00;;;18.50
13570;BMP180;6856;51.460;7.158;2023-05-10T00:18:28;99640.00;;;18.60
13570;BMP180;6856;51.460;7.158;2023-05-10T00:21:02;99640.00;;;18.60
13570;BMP180;6856;51.460;7.158;2023-05-10T00:23:36;99636.00;;;18.60
13570;BMP180;6856;51.460;7.158;2023-05-10T00:26:10;99637.00;;;18.50
13570;BMP180;6856;51.460;7.158;2023-05-10T00:28:44;99641.00;;;18.50
13570;BMP180;6856;51.460;7.158;2023-05-10T00:31:18;99641.00;;;18.50
13570;BMP180;6856;51.460;7.158;2023-05-10T00:33:54;99636.00;;;18.50
13570;BMP180;6856;51.460;7.158;2023-05-10T00:36:28;99639.00;;;18.50
13570;BMP180;6856;51.460;7.158;2023-05-10T00:39:03;99634.00;;;18.50
13570;BMP180;6856;51.460;7.158;2023-05-10T00:41:37;99636.00;;;18.50
13570;BMP180;6856;51.460;7.158;2023-05-10T00:44:11;99637.00;;;18.50
13570;BMP180;6856;51.460;7.158;2023-05-10T00:46:45;99639.00;;;18.50
13570;BMP180;6856;51.460;7.158;2023-05-10T00:49:21;99634.00;;;18.50
13570;BMP180;6856;51.460;7.158;2023-05-10T00:51:55;99633.00;;;18.50
13570;BMP180;6856;51.460;7.158;2023-05-10T00:54:29;99635.00;;;18.50
13570;BMP180;6856;51.460;7.158;2023-05-10T00:57:04;99643.00;;;18.50
13570;BMP180;6856;51.460;7.158;2023-05-10T00:59:38;99638.00;;;18.50
13570;BMP180;6856;51.460;7.158;2023-05-10T01:02:12;99634.00;;;18.60
13570;BMP180;6856;51.460;7.158;2023-05-10T01:04:49;99624.00;;;18.50
13570;BMP180;6856;51.460;7.158;2023-05-10T01:07:24;99638.00;;;18.50
13570;BMP180;6856;51.460;7.158;2023-05-10T01:09:59;99633.00;;;18.50
13570;BMP180;6856;51.460;7.158;2023-05-10T01:12:34;99643.00;;;18.50
13570;BMP180;6856;51.460;7.158;2023-05-10T01:15:11;99644.00;;;18.50
13570;BMP180;6856;51.460;7.158;2023-05-10T01:17:47;99647.00;;;18.50
13570;BMP180;6856;51.460;7.158;2023-05-10T01:20:23;99648.00;;;18.40
13570;BMP180;6856;51.460;7.158;2023-05-10T01:23:28;99653.00;;;18.40
13570;BMP180;6856;51.460;7.158;2023-05-10T01:26:54;99654.00;;;18.40
13570;BMP180;6856;51.460;7.158;2023-05-10T01:30:05;99650.00;;;18.30
13570;BMP180;6856;51.460;7.158;2023-05-10T01:32:57;99658.00;;;18.30
13570;BMP180;6856;51.460;7.158;2023-05-10T01:35:43;99660.00;;;18.30
13570;BMP180;6856;51.460;7.158;2023-05-10T01:38:26;99662.00;;;18.30
13570;BMP180;6856;51.460;7.158;2023-05-10T01:41:17;99660.00;;;18.20
13570;BMP180;6856;51.460;7.158;2023-05-10T01:43:59;99653.00;;;18.20
13570;BMP180;6856;51.460;7.158;2023-05-10T01:46:37;99664.00;;;18.20
13570;BMP180;6856;51.460;7.158;2023-05-10T01:49:21;99665.00;;;18.20
13570;BMP180;6856;51.460;7.158;2023-05-10T01:52:04;99659.00;;;18.10
13570;BMP180;6856;51.460;7.158;2023-05-10T01:54:49;99651.00;;;18.10
13570;BMP180;6856;51.460;7.158;2023-05-10T01:57:37;99656.00;;;18.10
13570;BMP180;6856;51.460;7.158;2023-05-10T02:00:14;99665.00;;;18.10
13570;BMP180;6856;51.460;7.158;2023-05-10T02:02:50;99661.00;;;18.00
13570;BMP180;6856;51.460;7.158;2023-05-10T02:05:28;99663.00;;;18.00
13570;BMP180;6856;51.460;7.158;2023-05-10T02:08:06;99661.00;;;18.00
13570;BMP180;6856;51.460;7.158;2023-05-10T02:10:42;99661.00;;;18.00
13570;BMP180;6856;51.460;7.158;2023-05-10T02:13:18;99669.00;;;18.00
13570;BMP180;6856;51.460;7.158;2023-05-10T02:15:54;99679.00;;;18.00
13570;BMP180;6856;51.460;7.158;2023-05-10T02:18:28;99673.00;;;18.00
13570;BMP180;6856;51.460;7.158;2023-05-10T02:21:07;99678.00;;;18.00
13570;BMP180;6856;51.460;7.158;2023-05-10T02:23:43;99675.00;;;18.00
13570;BMP180;6856;51.460;7.158;2023-05-10T02:26:20;99668.00;;;18.00
13570;BMP180;6856;51.460;7.158;2023-05-10T02:28:58;99677.00;;;18.00
13570;BMP180;6856;51.460;7.158;2023-05-10T02:31:36;99686.00;;;17.90
13570;BMP180;6856;51.460;7.158;2023-05-10T02:34:12;99691.00;;;17.90
13570;BMP180;6856;51.460;7.158;2023-05-10T02:36:48;99685.00;;;17.90
13570;BMP180;6856;51.460;7.158;2023-05-10T02:39:23;99687.00;;;17.90
13570;BMP180;6856;51.460;7.158;2023-05-10T02:42:00;99686.00;;;18.00
13570;BMP180;6856;51.460;7.158;2023-05-10T02:44:36;99685.00;;;18.00
13570;BMP180;6856;51.460;7.158;2023-05-10T02:47:10;99677.00;;;18.00
13570;BMP180;6856;51.460;7.158;2023-05-10T02:49:43;99690.00;;;18.00
13570;BMP180;6856;51.460;7.158;2023-05-10T02:52:25;99687.00;;;17.90
13570;BMP180;6856;51.460;7.158;2023-05-10T02:55:02;99685.00;;;17.90
13570;BMP180;6856;51.460;7.158;2023-05-10T02:57:43;99690.00;;;18.00
13570;BMP180;6856;51.460;7.158;2023-05-10T03:00:19;99685.00;;;18.00
13570;BMP180;6856;51.460;7.158;2023-05-10T03:02:53;99681.00;;;18.00
13570;BMP180;6856;51.460;7.158;2023-05-10T03:05:27;99678.00;;;18.00
13570;BMP180;6856;51.460;7.158;2023-05-10T03:08:03;99687.00;;;18.00
13570;BMP180;6856;51.460;7.158;2023-05-10T03:13:48;99691.00;;;18.00
13570;BMP180;6856;51.460;7.158;2023-05-10T03:16:30;99686.00;;;18.00
13570;BMP180;6856;51.460;7.158;2023-05-10T03:19:17;99688.00;;;18.00
13570;BMP180;6856;51.460;7.158;2023-05-10T03:21:59;99686.00;;;18.00
13570;BMP180;6856;51.460;7.158;2023-05-10T03:24:36;99695.00;;;18.00
13570;BMP180;6856;51.460;7.158;2023-05-10T03:27:14;99696.00;;;18.00
13570;BMP180;6856;51.460;7.158;2023-05-10T03:29:50;99691.00;;;18.00
13570;BMP180;6856;51.460;7.158;2023-05-10T03:32:24;99697.00;;;18.00
13570;BMP180;6856;51.460;7.158;2023-05-10T03:34:59;99698.00;;;18.00
13570;BMP180;6856;51.460;7.158;2023-05-10T03:37:34;99702.00;;;18.00
13570;BMP180;6856;51.460;7.158;2023-05-10T03:40:11;99701.00;;;18.00
13570;BMP180;6856;51.460;7.158;2023-05-10T03:42:45;99703.00;;;18.00
13570;BMP180;6856;51.460;7.158;2023-05-10T03:45:19;99706.00;;;18.00
13570;BMP180;6856;51.460;7.158;2023-05-10T03:47:53;99704.00;;;18.00
13570;BMP180;6856;51.460;7.158;2023-05-10T03:50:27;99710.00;;;18.00
13570;BMP180;6856;51.460;7.158;2023-05-10T03:53:01;99714.00;;;18.00
13570;BMP180;6856;51.460;7.158;2023-05-10T03:55:36;99711.00;;;18.00
13570;BMP180;6856;51.460;7.158;2023-05-10T03:58:11;99708.00;;;17.90
13570;BMP180;6856;51.460;7.158;2023-05-10T04:00:45;99722.00;;;17.90
13570;BMP180;6856;51.460;7.158;2023-05-10T04:03:19;99716.00;;;17.90
13570;BMP180;6856;51.460;7.158;2023-05-10T04:06:00;99707.00;;;17.90
13570;BMP180;6856;51.460;7.158;2023-05-10T04:08:34;99711.00;;;17.90
13570;BMP180;6856;51.460;7.158;2023-05-10T04:11:11;99709.00;;;17.90
13570;BMP180;6856;51.460;7.158;2023-05-10T04:13:46;99710.00;;;17.90
13570;BMP180;6856;51.460;7.158;2023-05-10T04:16:20;99713.00;;;17.90
13570;BMP180;6856;51.460;7.158;2023-05-10T04:18:54;99716.00;;;17.90
13570;BMP180;6856;51.460;7.158;2023-05-10T04:21:27;99725.00;;;17.80
13570;BMP180;6856;51.460;7.158;2023-05-10T04:24:01;99725.00;;;17.80
13570;BMP180;6856;51.460;7.158;2023-05-10T04:26:36;99730.00;;;17.80
13570;BMP180;6856;51.460;7.158;2023-05-10T04:29:10;99724.00;;;17.80
13570;BMP180;6856;51.460;7.158;2023-05-10T04:31:44;99732.00;;;17.80
13570;BMP180;6856;51.460;7.158;2023-05-10T04:34:17;99728.00;;;17.80
13570;BMP180;6856;51.460;7.158;2023-05-10T04:36:51;99728.00;;;17.80
13570;BMP180;6856;51.460;7.158;2023-05-10T04:39:25;99713.00;;;17.80
13570;BMP180;6856;51.460;7.158;2023-05-10T04:42:00;99727.00;;;17.80
13570;BMP180;6856;51.460;7.158;2023-05-10T04:44:35;99738.00;;;17.80
13570;BMP180;6856;51.460;7.158;2023-05-10T04:47:09;99734.00;;;17.80
13570;BMP180;6856;51.460;7.158;2023-05-10T04:49:44;99729.00;;;17.80
13570;BMP180;6856;51.460;7.158;2023-05-10T04:52:18;99728.00;;;17.80
13570;BMP180;6856;51.460;7.158;2023-05-10T04:54:51;99740.00;;;17.80
13570;BMP180;6856;51.460;7.158;2023-05-10T04:57:27;99742.00;;;17.80
13570;BMP180;6856;51.460;7.158;2023-05-10T05:00:01;99743.00;;;17.80
13570;BMP180;6856;51.460;7.158;2023-05-10T05:02:35;99747.00;;;17.80
13570;BMP180;6856;51.460;7.158;2023-05-10T05:05:09;99745.00;;;17.80
13570;BMP180;6856;51.460;7.158;2023-05-10T05:07:43;99740.00;;;17.80
13570;BMP180;6856;51.460;7.158;2023-05-10T05:10:18;99747.00;;;17.80
13570;BMP180;6856;51.460;7.158;2023-05-10T05:12:53;99752.00;;;17.80
13570;BMP180;6856;51.460;7.158;2023-05-10T05:15:27;99751.00;;;17.80
13570;BMP180;6856;51.460;7.158;2023-05-10T05:18:02;99753.00;;;17.80
13570;BMP180;6856;51.460;7.158;2023-05-10T05:20:36;99760.00;;;17.70
13570;BMP180;6856;51.460;7.158;2023-05-10T05:23:10;99755.00;;;17.80
13570;BMP180;6856;51.460;7.158;2023-05-10T05:25:44;99757.00;;;17.80
13570;BMP180;6856;51.460;7.158;2023-05-10T05:28:19;99754.00;;;17.80
13570;BMP180;6856;51.460;7.158;2023-05-10T05:30:53;99761.00;;;17.80
13570;BMP180;6856;51.460;7.158;2023-05-10T05:33:26;99756.00;;;17.80
13570;BMP180;6856;51.460;7.158;2023-05-10T05:36:02;99767.00;;;17.90
13570;BMP180;6856;51.460;7.158;2023-05-10T05:38:37;99759.00;;;17.90
13570;BMP180;6856;51.460;7.158;2023-05-10T05:41:11;99761.00;;;17.90
13570;BMP180;6856;51.460;7.158;2023-05-10T05:43:47;99763.00;;;17.90
13570;BMP180;6856;51.460;7.158;2023-05-10T05:46:21;99765.00;;;17.90
13570;BMP180;6856;51.460;7.158;2023-05-10T05:48:55;99766.00;;;17.90
13570;BMP180;6856;51.460;7.158;2023-05-10T05:51:29;99772.00;;;17.90
13570;BMP180;6856;51.460;7.158;2023-05-10T05:54:03;99774.00;;;17.90
13570;BMP180;6856;51.460;7.158;2023-05-10T05:56:37;99771.00;;;17.90
13570;BMP180;6856;51.460;7.158;2023-05-10T05:59:12;99778.00;;;17.90
13570;BMP180;6856;51.460;7.158;2023-05-10T06:01:46;99783.00;;;17.90
13570;BMP180;6856;51.460;7.158;2023-05-10T06:04:20;99787.00;;;17.90
13570;BMP180;6856;51.460;7.158;2023-05-10T06:06:54;99784.00;;;17.90
13570;BMP180;6856;51.460;7.158;2023-05-10T06:09:28;99789.00;;;17.90
13570;BMP180;6856;51.460;7.158;2023-05-10T06:12:02;99792.00;;;17.90
13570;BMP180;6856;51.460;7.158;2023-05-10T06:14:38;99792.00;;;17.90
13570;BMP180;6856;51.460;7.158;2023-05-10T06:17:12;99806.00;;;17.90
13570;BMP180;6856;51.460;7.158;2023-05-10T06:19:45;99800.00;;;17.90
13570;BMP180;6856;51.460;7.158;2023-05-10T06:22:19;99813.00;;;17.90
13570;BMP180;6856;51.460;7.158;2023-05-10T06:24:54;99806.00;;;17.90
13570;BMP180;6856;51.460;7.158;2023-05-10T06:27:28;99812.00;;;18.00
13570;BMP180;6856;51.460;7.158;2023-05-10T06:30:08;99813.00;;;18.00
13570;BMP180;6856;51.460;7.158;2023-05-10T06:32:44;99811.00;;;18.00
13570;BMP180;6856;51.460;7.158;2023-05-10T06:35:18;99818.00;;;18.00
13570;BMP180;6856;51.460;7.158;2023-05-10T06:37:52;99819.00;;;18.10
13570;BMP180;6856;51.460;7.158;2023-05-10T06:40:27;99822.00;;;18.10
13570;BMP180;6856;51.460;7.158;2023-05-10T06:43:01;99830.00;;;18.10
13570;BMP180;6856;51.460;7.158;2023-05-10T06:45:36;99811.00;;;18.10
13570;BMP180;6856;51.460;7.158;2023-05-10T06:48:10;99822.00;;;18.20
13570;BMP180;6856;51.460;7.158;2023-05-10T06:50:44;99828.00;;;18.20
13570;BMP180;6856;51.460;7.158;2023-05-10T06:53:18;99812.00;;;18.20
13570;BMP180;6856;51.460;7.158;2023-05-10T06:55:51;99820.00;;;18.30
13570;BMP180;6856;51.460;7.158;2023-05-10T06:58:25;99827.00;;;18.30
13570;BMP180;6856;51.460;7.158;2023-05-10T07:01:04;99826.00;;;18.30
13570;BMP180;6856;51.460;7.158;2023-05-10T07:03:37;99830.00;;;18.40
13570;BMP180;6856;51.460;7.158;2023-05-10T07:06:11;99836.00;;;18.40
13570;BMP180;6856;51.460;7.158;2023-05-10T07:09:04;99837.00;;;18.40
13570;BMP180;6856;51.460;7.158;2023-05-10T07:11:38;99839.00;;;18.40
13570;BMP180;6856;51.460;7.158;2023-05-10T07:14:12;99838.00;;;18.50
13570;BMP180;6856;51.460;7.158;2023-05-10T07:16:47;99835.00;;;18.50
13570;BMP180;6856;51.460;7.158;2023-05-10T07:19:21;99831.00;;;18.50
13570;BMP180;6856;51.460;7.158;2023-05-10T07:21:55;99839.00;;;18.50
13570;BMP180;6856;51.460;7.158;2023-05-10T07:24:33;99842.00;;;18.50
13570;BMP180;6856;51.460;7.158;2023-05-10T07:27:07;99836.00;;;18.50
13570;BMP180;6856;51.460;7.158;2023-05-10T07:29:41;99841.00;;;18.60
13570;BMP180;6856;51.460;7.158;2023-05-10T07:32:17;99840.00;;;18.60
13570;BMP180;6856;51.460;7.158;2023-05-10T07:34:50;99837.00;;;18.70
13570;BMP180;6856;51.460;7.158;2023-05-10T07:37:24;99834.00;;;18.70
13570;BMP180;6856;51.460;7.158;2023-05-10T07:39:59;99839.00;;;18.70
13570;BMP180;6856;51.460;7.158;2023-05-10T07:42:33;99843.00;;;18.80
13570;BMP180;6856;51.460;7.158;2023-05-10T07:45:08;99850.00;;;18.90
13570;BMP180;6856;51.460;7.158;2023-05-10T07:47:44;99850.00;;;18.90
13570;BMP180;6856;51.460;7.158;2023-05-10T07:50:18;99847.00;;;18.90
13570;BMP180;6856;51.460;7.158;2023-05-10T07:52:52;99850.00;;;19.00
13570;BMP180;6856;51.460;7.158;2023-05-10T07:55:26;99852.00;;;19.00
13570;BMP180;6856;51.460;7.158;2023-05-10T07:58:01;99853.00;;;19.00
13570;BMP180;6856;51.460;7.158;2023-05-10T08:00:36;99849.00;;;19.00
13570;BMP180;6856;51.460;7.158;2023-05-10T08:03:13;99858.00;;;19.00
13570;BMP180;6856;51.460;7.158;2023-05-10T08:05:47;99873.00;;;19.00
13570;BMP180;6856;51.460;7.158;2023-05-10T08:08:21;99865.00;;;19.00
13570;BMP180;6856;51.460;7.158;2023-05-10T08:10:56;99868.00;;;19.00
13570;BMP180;6856;51.460;7.158;2023-05-10T08:13:30;99867.00;;;19.00
13570;BMP180;6856;51.460;7.158;2023-05-10T08:16:05;99874.00;;;19.00
13570;BMP180;6856;51.460;7.158;2023-05-10T08:18:41;99877.00;;;19.00
13570;BMP180;6856;51.460;7.158;2023-05-10T08:21:15;99879.00;;;19.00
13570;BMP180;6856;51.460;7.158;2023-05-10T08:23:49;99875.00;;;19.00
13570;BMP180;6856;51.460;7.158;2023-05-10T08:26:23;99889.00;;;19.00
13570;BMP180;6856;51.460;7.158;2023-05-10T08:28:57;99889.00;;;19.00
13570;BMP180;6856;51.460;7.158;2023-05-10T08:31:30;99897.00;;;19.00
13570;BMP180;6856;51.460;7.158;2023-05-10T08:34:06;99897.00;;;19.00
13570;BMP180;6856;51.460;7.158;2023-05-10T08:36:40;99905.00;;;19.00
13570;BMP180;6856;51.460;7.158;2023-05-10T08:39:14;99895.00;;;19.00
13570;BMP180;6856;51.460;7.158;2023-05-10T08:42:04;99901.00;;;19.00
13570;BMP180;6856;51.460;7.158;2023-05-10T08:44:38;99909.00;;;19.00
13570;BMP180;6856;51.460;7.158;2023-05-10T08:47:15;99903.00;;;19.00
13570;BMP180;6856;51.460;7.158;2023-05-10T08:49:52;99909.00;;;19.00
13570;BMP180;6856;51.460;7.158;2023-05-10T08:52:30;99913.00;;;19.00
13570;BMP180;6856;51.460;7.158;2023-05-10T08:55:05;99914.00;;;19.00
13570;BMP180;6856;51.460;7.158;2023-05-10T08:57:39;99915.00;;;19.10
13570;BMP180;6856;51.460;7.158;2023-05-10T09:00:14;99915.00;;;19.10
13570;BMP180;6856;51.460;7.158;2023-05-10T09:02:50;99918.00;;;19.00
13570;BMP180;6856;51.460;7.158;2023-05-10T09:05:25;99921.00;;;19.10
13570;BMP180;6856;51.460;7.158;2023-05-10T09:07:59;99914.00;;;19.10
13570;BMP180;6856;51.460;7.158;2023-05-10T09:10:33;99915.00;;;19.10
13570;BMP180;6856;51.460;7.158;2023-05-10T09:13:10;99914.00;;;19.10
13570;BMP180;6856;51.460;7.158;2023-05-10T09:15:45;99925.00;;;19.20
13570;BMP180;6856;51.460;7.158;2023-05-10T09:18:20;99925.00;;;19.20
13570;BMP180;6856;51.460;7.158;2023-05-10T09:20:56;99924.00;;;19.30
13570;BMP180;6856;51.460;7.158;2023-05-10T09:23:30;99935.00;;;19.30
13570;BMP180;6856;51.460;7.158;2023-05-10T09:26:04;99931.00;;;19.30
13570;BMP180;6856;51.460;7.158;2023-05-10T09:28:52;99929.00;;;19.40
13570;BMP180;6856;51.460;7.158;2023-05-10T09:31:44;99930.00;;;19.40
13570;BMP180;6856;51.460;7.158;2023-05-10T09:34:20;99931.00;;;19.50
13570;BMP180;6856;51.460;7.158;2023-05-10T09:36:58;99934.00;;;19.50
13570;BMP180;6856;51.460;7.158;2023-05-10T09:39:34;99933.00;;;19.60
13570;BMP180;6856;51.460;7.158;2023-05-10T09:42:09;99943.00;;;19.60
13570;BMP180;6856;51.460;7.158;2023-05-10T09:44:45;99936.00;;;19.60
13570;BMP180;6856;51.460;7.158;2023-05-10T09:47:20;99932.00;;;19.60
13570;BMP180;6856;51.460;7.158;2023-05-10T09:49:54;99938.00;;;19.60
13570;BMP180;6856;51.460;7.158;2023-05-10T09:52:47;99939.00;;;19.60
13570;BMP180;6856;51.460;7.158;2023-05-10T09:55:24;99941.00;;;19.60
13570;BMP180;6856;51.460;7.158;2023-05-10T09:58:02;99949.00;;;19.70
13570;BMP180;6856;51.460;7.158;2023-05-10T10:00:38;99940.00;;;19.70
13570;BMP180;6856;51.460;7.158;2023-05-10T10:03:14;99955.00;;;19.80
13570;BMP180;6856;51.460;7.158;2023-05-10T10:05:48;99945.00;;;19.90
13570;BMP180;6856;51.460;7.158;2023-05-10T10:08:25;99943.00;;;19.90
13570;BMP180;6856;51.460;7.158;2023-05-10T10:10:59;99941.00;;;20.00
13570;BMP180;6856;51.460;7.158;2023-05-10T10:13:35;99934.00;;;20.00
13570;BMP180;6856;51.460;7.158;2023-05-10T10:16:09;99945.00;;;20.00
13570;BMP180;6856;51.460;7.158;2023-05-10T10:18:43;99944.00;;;20.00
13570;BMP180;6856;51.460;7.158;2023-05-10T10:21:18;99947.00;;;20.00
13570;BMP180;6856;51.460;7.158;2023-05-10T10:23:54;99945.00;;;20.00
13570;BMP180;6856;51.460;7.158;2023-05-10T10:26:28;99953.00;;;20.10
13570;BMP180;6856;51.460;7.158;2023-05-10T10:29:21;99958.00;;;20.10
13570;BMP180;6856;51.460;7.158;2023-05-10T10:32:09;99959.00;;;20.10
13570;BMP180;6856;51.460;7.158;2023-05-10T10:34:44;99963.00;;;20.10
13570;BMP180;6856;51.460;7.158;2023-05-10T10:37:18;99960.00;;;20.20
13570;BMP180;6856;51.460;7.158;2023-05-10T10:39:56;99958.00;;;20.20
13570;BMP180;6856;51.460;7.158;2023-05-10T10:42:46;99955.00;;;20.30
13570;BMP180;6856;51.460;7.158;2023-05-10T10:45:23;99965.00;;;20.30
13570;BMP180;6856;51.460;7.158;2023-05-10T10:48:21;99967.00;;;20.30
13570;BMP180;6856;51.460;7.158;2023-05-10T10:50:59;99972.00;;;20.30
13570;BMP180;6856;51.460;7.158;2023-05-10T10:53:34;99968.00;;;20.30
13570;BMP180;6856;51.460;7.158;2023-05-10T10:56:12;99967.00;;;20.20
13570;BMP180;6856;51.460;7.158;2023-05-10T10:58:50;99975.00;;;20.20
13570;BMP180;6856;51.460;7.158;2023-05-10T11:01:33;99972.00;;;20.20
13570;BMP180;6856;51.460;7.158;2023-05-10T11:04:19;99964.00;;;20.20
13570;BMP180;6856;51.460;7.158;2023-05-10T11:07:17;99975.00;;;20.20
13570;BMP180;6856;51.460;7.158;2023-05-10T11:09:51;99985.00;;;20.20
13570;BMP180;6856;51.460;7.158;2023-05-10T11:12:26;99981.00;;;20.20
13570;BMP180;6856;51.460;7.158;2023-05-10T11:15:00;99989.00;;;20.20
13570;BMP180;6856;51.460;7.158;2023-05-10T11:17:35;99992.00;;;20.10
13570;BMP180;6856;51.460;7.158;2023-05-10T11:20:11;99990.00;;;20.10
13570;BMP180;6856;51.460;7.158;2023-05-10T11:22:52;99997.00;;;20.10
13570;BMP180;6856;51.460;7.158;2023-05-10T11:25:27;99996.00;;;20.10
13570;BMP180;6856;51.460;7.158;2023-05-10T11:28:04;99993.00;;;20.10
13570;BMP180;6856;51.460;7.158;2023-05-10T11:30:39;99992.00;;;20.10
13570;BMP180;6856;51.460;7.158;2023-05-10T11:33:17;99993.00;;;20.10
13570;BMP180;6856;51.460;7.158;2023-05-10T11:35:51;100003.00;;;20.10
13570;BMP180;6856;51.460;7.158;2023-05-10T11:38:27;100004.00;;;20.20
13570;BMP180;6856;51.460;7.158;2023-05-10T11:41:01;100008.00;;;20.20
13570;BMP180;6856;51.460;7.158;2023-05-10T11:43:37;100007.00;;;20.20
13570;BMP180;6856;51.460;7.158;2023-05-10T11:46:13;100007.00;;;20.20
13570;BMP180;6856;51.460;7.158;2023-05-10T11:48:49;100006.00;;;20.20
13570;BMP180;6856;51.460;7.158;2023-05-10T11:51:25;100017.00;;;20.20
13570;BMP180;6856;51.460;7.158;2023-05-10T11:53:59;100000.00;;;20.30
13570;BMP180;6856;51.460;7.158;2023-05-10T11:56:35;100015.00;;;20.30
13570;BMP180;6856;51.460;7.158;2023-05-10T11:59:14;100013.00;;;20.30
13570;BMP180;6856;51.460;7.158;2023-05-10T12:01:48;100015.00;;;20.30
13570;BMP180;6856;51.460;7.158;2023-05-10T12:04:23;100021.00;;;20.30
13570;BMP180;6856;51.460;7.158;2023-05-10T12:06:57;100031.00;;;20.30
13570;BMP180;6856;51.460;7.158;2023-05-10T12:09:31;100029.00;;;20.30
13570;BMP180;6856;51.460;7.158;2023-05-10T12:12:16;100021.00;;;20.30
13570;BMP180;6856;51.460;7.158;2023-05-10T12:14:52;100017.00;;;20.20
13570;BMP180;6856;51.460;7.158;2023-05-10T12:17:28;100018.00;;;20.20
13570;BMP180;6856;51.460;7.158;2023-05-10T12:20:15;100025.00;;;20.30
13570;BMP180;6856;51.460;7.158;2023-05-10T12:22:52;100025.00;;;20.30
13570;BMP180;6856;51.460;7.158;2023-05-10T12:25:31;100022.00;;;20.30
13570;BMP180;6856;51.460;7.158;2023-05-10T12:28:07;100025.00;;;20.30
13570;BMP180;6856;51.460;7.158;2023-05-10T12:30:44;100022.00;;;20.40
13570;BMP180;6856;51.460;7.158;2023-05-10T12:33:18;100018.00;;;20.40
13570;BMP180;6856;51.460;7.158;2023-05-10T12:35:54;100020.00;;;20.50
13570;BMP180;6856;51.460;7.158;2023-05-10T12:38:32;100023.00;;;20.50
13570;BMP180;6856;51.460;7.158;2023-05-10T12:41:09;100016.00;;;20.60
13570;BMP180;6856;51.460;7.158;2023-05-10T12:43:44;100026.00;;;20.70
13570;BMP180;6856;51.460;7.158;2023-05-10T12:46:20;100023.00;;;20.70
13570;BMP180;6856;51.460;7.158;2023-05-10T12:48:57;100028.00;;;20.80
13570;BMP180;6856;51.460;7.158;2023-05-10T12:51:40;100034.00;;;20.80
13570;BMP180;6856;51.460;7.158;2023-05-10T12:54:14;100043.00;;;20.90
13570;BMP180;6856;51.460;7.158;2023-05-10T12:56:48;100042.00;;;20.90
13570;BMP180;6856;51.460;7.158;2023-05-10T12:59:22;100040.00;;;20.90
13570;BMP180;6856;51.460;7.158;2023-05-10T13:01:57;100035.00;;;20.90
13570;BMP180;6856;51.460;7.158;2023-05-10T13:04:32;100048.00;;;20.90
13570;BMP180;6856;51.460;7.158;2023-05-10T13:07:06;100039.00;;;21.00
13570;BMP180;6856;51.460;7.158;2023-05-10T13:09:40;100051.00;;;21.00
13570;BMP180;6856;51.460;7.158;2023-05-10T13:12:14;100041.00;;;21.00
13570;BMP180;6856;51.460;7.158;2023-05-10T13:14:48;100039.00;;;21.10
13570;BMP180;6856;51.460;7.158;2023-05-10T13:17:25;100037.00;;;21.10
13570;BMP180;6856;51.460;7.158;2023-05-10T13:19:59;100047.00;;;21.20
13570;BMP180;6856;51.460;7.158;2023-05-10T13:22:33;100042.00;;;21.20
13570;BMP180;6856;51.460;7.158;2023-05-10T13:25:12;100037.00;;;21.30
13570;BMP180;6856;51.460;7.158;2023-05-10T13:27:46;100046.00;;;21.30
13570;BMP180;6856;51.460;7.158;2023-05-10T13:30:20;100044.00;;;21.30
13570;BMP180;6856;51.460;7.158;2023-05-10T13:32:55;100042.00;;;21.40
13570;BMP180;6856;51.460;7.158;2023-05-10T13:35:29;100038.00;;;21.40
13570;BMP180;6856;51.460;7.158;2023-05-10T13:38:04;100031.00;;;21.40
13570;BMP180;6856;51.460;7.158;2023-05-10T13:40:40;100034.00;;;21.50
13570;BMP180;6856;51.460;7.158;2023-05-10T13:43:13;100032.00;;;21.50
13570;BMP180;6856;51.460;7.158;2023-05-10T13:45:47;100037.00;;;21.60
13570;BMP180;6856;51.460;7.158;2023-05-10T13:48:23;100039.00;;;21.60
13570;BMP180;6856;51.460;7.158;2023-05-10T13:50:57;100032.00;;;21.70
13570;BMP180;6856;51.460;7.158;2023-05-10T13:53:31;100036.00;;;21.70
13570;BMP180;6856;51.460;7.158;2023-05-10T13:56:06;100033.00;;;21.70
13570;BMP180;6856;51.460;7.158;2023-05-10T13:58:41;100028.00;;;21.70
13570;BMP180;6856;51.460;7.158;2023-05-10T14:01:15;100024.00;;;21.80
13570;BMP180;6856;51.460;7.158;2023-05-10T14:03:50;100015.00;;;21.80
13570;BMP180;6856;51.460;7.158;2023-05-10T14:06:24;100029.00;;;21.90
13570;BMP180;6856;51.460;7.158;2023-05-10T14:08:59;100026.00;;;21.90
13570;BMP180;6856;51.460;7.158;2023-05-10T14:11:32;100029.00;;;21.90
13570;BMP180;6856;51.460;7.158;2023-05-10T14:14:06;100026.00;;;21.90
13570;BMP180;6856;51.460;7.158;2023-05-10T14:16:43;100023.00;;;22.00
13570;BMP180;6856;51.460;7.158;2023-05-10T14:19:19;100023.00;;;22.00
13570;BMP180;6856;51.460;7.158;2023-05-10T14:21:53;100024.00;;;22.00
13570;BMP180;6856;51.460;7.158;2023-05-10T14:24:27;100018.00;;;22.10
13570;BMP180;6856;51.460;7.158;2023-05-10T14:27:01;100017.00;;;22.10
13570;BMP180;6856;51.460;7.158;2023-05-10T14:29:35;100024.00;;;22.20
13570;BMP180;6856;51.460;7.158;2023-05-10T14:32:08;100022.00;;;22.20
13570;BMP180;6856;51.460;7.158;2023-05-10T14:34:44;100007.00;;;22.20
13570;BMP180;6856;51.460;7.158;2023-05-10T14:37:18;100019.00;;;22.20
13570;BMP180;6856;51.460;7.158;2023-05-10T14:39:52;100016.00;;;22.20
13570;BMP180;6856;51.460;7.158;2023-05-10T14:42:26;100021.00;;;22.20
13570;BMP180;6856;51.460;7.158;2023-05-10T14:45:00;100023.00;;;22.20
13570;BMP180;6856;51.460;7.158;2023-05-10T14:47:34;100018.00;;;22.20
13570;BMP180;6856;51.460;7.158;2023-05-10T14:50:10;100024.00;;;22.20
13570;BMP180;6856;51.460;7.158;2023-05-10T14:53:03;100027.00;;;22.20
13570;BMP180;6856;51.460;7.158;2023-05-10T14:55:37;100019.00;;;22.20
13570;BMP180;6856;51.460;7.158;2023-05-10T14:58:12;100029.00;;;22.20
13570;BMP180;6856;51.460;7.158;2023-05-10T15:00:46;100022.00;;;22.30
13570;BMP180;6856;51.460;7.158;2023-05-10T15:03:21;100021.00;;;22.30
13570;BMP180;6856;51.460;7.158;2023-05-10T15:05:57;100021.00;;;22.30
13570;BMP180;6856;51.460;7.158;2023-05-10T15:08:31;100017.00;;;22.30
13570;BMP180;6856;51.460;7.158;2023-05-10T15:11:04;100017.00;;;22.30
13570;BMP180;6856;51.460;7.158;2023-05-10T15:13:39;100010.00;;;22.30